sensor_id;sensor_type;location;lat;lon;timestamp;pressure;altitude;pressure_sealevel;temperature;humidity
8280;BME280;8335;42.646;23.380;2023-04-15T00:02:00;143514.03;;;7.77;75.69
8280;BME280;8335;42.646;23.380;2023-04-15T00:04:27;143510.31;;;7.76;75.75
8280;BME280;8335;42.646;23.380;2023-04-15T00:06:55;143512.78;;;7.77;74.64
8280;BME280;8335;42.646;23.380;2023-04-15T00:09:22;143517.78;;;7.79;74.87
8280;BME280;8335;42.646;23.380;2023-04-15T00:11:49;143510.31;;;7.76;74.23
8280;BME280;8335;42.646;23.380;2023-04-15T00:14:16;143511.56;;;7.76;74.59
8280;BME280;8335;42.646;23.380;2023-04-15T00:16:45;143502.91;;;7.72;73.40
8280;BME280;8335;42.646;23.380;2023-04-15T00:19:11;143501.66;;;7.72;73.14
8280;BME280;8335;42.646;23.380;2023-04-15T00:21:38;143494.19;;;7.69;76.88
8280;BME280;8335;42.646;23.380;2023-04-15T00:24:05;143505.38;;;7.73;80.86
8280;BME280;8335;42.646;23.380;2023-04-15T00:26:32;143514.03;;;7.77;83.55
8280;BME280;8335;42.646;23.380;2023-04-15T00:28:58;143535.09;;;7.86;84.21
8280;BME280;8335;42.646;23.380;2023-04-15T00:31:25;143553.75;;;7.93;83.43
8280;BME280;8335;42.646;23.380;2023-04-15T00:33:54;143553.75;;;7.93;83.75
8280;BME280;8335;42.646;23.380;2023-04-15T00:36:21;143531.38;;;7.84;82.81
8280;BME280;8335;42.646;23.380;2023-04-15T00:38:48;143514.03;;;7.77;82.34
8280;BME280;8335;42.646;23.380;2023-04-15T00:41:15;143535.09;;;7.86;82.50
8280;BME280;8335;42.646;23.380;2023-04-15T00:43:42;143538.88;;;7.87;81.82
8280;BME280;8335;42.646;23.380;2023-04-15T00:46:09;143564.88;;;7.98;81.25
8280;BME280;8335;42.646;23.380;2023-04-15T00:48:38;143581.00;;;8.05;81.77
8280;BME280;8335;42.646;23.380;2023-04-15T00:51:08;143574.81;;;8.02;81.52
8280;BME280;8335;42.646;23.380;2023-04-15T00:53:35;143574.81;;;8.02;82.03
8280;BME280;8335;42.646;23.380;2023-04-15T00:56:01;143576.06;;;8.03;82.33
8280;BME280;8335;42.646;23.380;2023-04-15T00:58:28;143597.16;;;8.11;83.84
8280;BME280;8335;42.646;23.380;2023-04-15T01:00:55;143589.72;;;8.08;84.71
8280;BME280;8335;42.646;23.380;2023-04-15T01:03:23;143608.31;;;8.16;83.24
8280;BME280;8335;42.646;23.380;2023-04-15T01:05:50;143603.34;;;8.14;81.97
8280;BME280;8335;42.646;23.380;2023-04-15T01:08:25;143592.19;;;8.09;82.62
8280;BME280;8335;42.646;23.380;2023-04-15T01:10:53;143582.25;;;8.05;83.04
8280;BME280;8335;42.646;23.380;2023-04-15T01:13:22;143587.22;;;8.07;83.51
8280;BME280;8335;42.646;23.380;2023-04-15T01:15:49;143531.38;;;7.84;81.89
8280;BME280;8335;42.646;23.380;2023-04-15T01:18:17;143522.72;;;7.81;82.46
8280;BME280;8335;42.646;23.380;2023-04-15T01:20:44;143507.84;;;7.75;81.09
8280;BME280;8335;42.646;23.380;2023-04-15T01:23:11;143489.25;;;7.67;80.68
8280;BME280;8335;42.646;23.380;2023-04-15T01:25:40;143469.41;;;7.59;81.13
8280;BME280;8335;42.646;23.380;2023-04-15T01:28:07;143468.19;;;7.58;81.57
8280;BME280;8335;42.646;23.380;2023-04-15T01:30:35;143448.34;;;7.50;81.94
8280;BME280;8335;42.646;23.380;2023-04-15T01:33:02;143394.97;;;7.28;83.34
8280;BME280;8335;42.646;23.380;2023-04-15T01:35:29;143360.28;;;7.14;84.86
8280;BME280;8335;42.646;23.380;2023-04-15T01:37:59;143263.63;;;6.74;84.22
8280;BME280;8335;42.646;23.380;2023-04-15T01:40:28;143345.44;;;7.08;84.83
8280;BME280;8335;42.646;23.380;2023-04-15T01:42:56;143318.16;;;6.97;85.08
8280;BME280;8335;42.646;23.380;2023-04-15T01:45:23;143305.75;;;6.92;85.85
8280;BME280;8335;42.646;23.380;2023-04-15T01:47:50;143243.81;;;6.66;86.92
8280;BME280;8335;42.646;23.380;2023-04-15T01:50:17;143243.81;;;6.66;86.65
8280;BME280;8335;42.646;23.380;2023-04-15T01:52:44;143219.00;;;6.56;86.41
8280;BME280;8335;42.646;23.380;2023-04-15T01:55:12;143205.41;;;6.50;86.74
8280;BME280;8335;42.646;23.380;2023-04-15T01:57:39;143195.47;;;6.46;87.29
8280;BME280;8335;42.646;23.380;2023-04-15T02:00:08;143168.22;;;6.35;86.94
8280;BME280;8335;42.646;23.380;2023-04-15T02:02:35;143195.47;;;6.46;88.46
8280;BME280;8335;42.646;23.380;2023-04-15T02:05:03;143204.13;;;6.50;88.32
8280;BME280;8335;42.646;23.380;2023-04-15T02:07:30;143212.81;;;6.53;89.26
8280;BME280;8335;42.646;23.380;2023-04-15T02:09:57;143237.59;;;6.63;88.80
8280;BME280;8335;42.646;23.380;2023-04-15T02:12:24;143253.69;;;6.70;89.18
8280;BME280;8335;42.646;23.380;2023-04-15T02:14:51;143262.41;;;6.74;90.10
8280;BME280;8335;42.646;23.380;2023-04-15T02:17:19;143285.94;;;6.83;90.36
8280;BME280;8335;42.646;23.380;2023-04-15T02:19:46;143294.63;;;6.87;89.71
8280;BME280;8335;42.646;23.380;2023-04-15T02:22:14;143305.75;;;6.92;90.33
8280;BME280;8335;42.646;23.380;2023-04-15T02:24:43;143292.16;;;6.86;90.38
8280;BME280;8335;42.646;23.380;2023-04-15T02:27:14;143303.28;;;6.90;90.50
8280;BME280;8335;42.646;23.380;2023-04-15T02:29:42;143271.03;;;6.77;90.67
8280;BME280;8335;42.646;23.380;2023-04-15T02:32:09;143314.44;;;6.95;91.18
8280;BME280;8335;42.646;23.380;2023-04-15T02:34:38;143316.91;;;6.96;91.48
8280;BME280;8335;42.646;23.380;2023-04-15T02:37:05;143315.69;;;6.96;91.53
8280;BME280;8335;42.646;23.380;2023-04-15T02:39:32;143309.50;;;6.93;91.54
8280;BME280;8335;42.646;23.380;2023-04-15T02:41:59;143306.97;;;6.92;91.51
8280;BME280;8335;42.646;23.380;2023-04-15T02:44:27;143311.97;;;6.94;92.17
8280;BME280;8335;42.646;23.380;2023-04-15T02:46:53;143330.56;;;7.02;92.60
8280;BME280;8335;42.646;23.380;2023-04-15T02:49:20;143318.16;;;6.97;92.57
8280;BME280;8335;42.646;23.380;2023-04-15T02:51:48;143323.09;;;6.99;94.01
8280;BME280;8335;42.646;23.380;2023-04-15T02:54:15;143302.03;;;6.90;94.27
8280;BME280;8335;42.646;23.380;2023-04-15T02:56:42;143289.63;;;6.85;94.22
8280;BME280;8335;42.646;23.380;2023-04-15T02:59:09;143227.69;;;6.59;92.54
8280;BME280;8335;42.646;23.380;2023-04-15T03:01:36;143196.72;;;6.47;92.43
8280;BME280;8335;42.646;23.380;2023-04-15T03:04:03;143175.66;;;6.38;91.52
8280;BME280;8335;42.646;23.380;2023-04-15T03:06:32;143149.63;;;6.27;91.81
8280;BME280;8335;42.646;23.380;2023-04-15T03:09:00;143139.75;;;6.23;92.50
8280;BME280;8335;42.646;23.380;2023-04-15T03:11:28;143024.50;;;5.76;92.41
8280;BME280;8335;42.646;23.380;2023-04-15T03:13:55;143106.31;;;6.10;92.77
8280;BME280;8335;42.646;23.380;2023-04-15T03:16:22;143102.59;;;6.08;93.27
8280;BME280;8335;42.646;23.380;2023-04-15T03:18:49;143100.06;;;6.07;93.63
8280;BME280;8335;42.646;23.380;2023-04-15T03:21:16;143096.38;;;6.05;93.28
8280;BME280;8335;42.646;23.380;2023-04-15T03:23:44;143102.59;;;6.08;93.75
8280;BME280;8335;42.646;23.380;2023-04-15T03:26:23;143108.78;;;6.11;94.15
8280;BME280;8335;42.646;23.380;2023-04-15T03:28:49;143112.47;;;6.12;94.08
8280;BME280;8335;42.646;23.380;2023-04-15T03:31:16;143097.63;;;6.06;94.52
8280;BME280;8335;42.646;23.380;2023-04-15T03:33:43;143082.75;;;6.00;94.84
8280;BME280;8335;42.646;23.380;2023-04-15T03:36:10;143084.03;;;6.00;95.12
8280;BME280;8335;42.646;23.380;2023-04-15T03:38:36;143060.47;;;5.91;95.52
8280;BME280;8335;42.646;23.380;2023-04-15T03:41:03;143077.81;;;5.98;95.81
8280;BME280;8335;42.646;23.380;2023-04-15T03:43:31;143069.16;;;5.94;96.12
8280;BME280;8335;42.646;23.380;2023-04-15T03:45:58;143069.16;;;5.94;96.50
8280;BME280;8335;42.646;23.380;2023-04-15T03:48:25;143066.69;;;5.93;96.80
8280;BME280;8335;42.646;23.380;2023-04-15T03:50:52;143065.41;;;5.93;96.83
8280;BME280;8335;42.646;23.380;2023-04-15T03:53:20;142929.22;;;5.37;96.98
8280;BME280;8335;42.646;23.380;2023-04-15T03:55:47;143080.28;;;5.99;97.75
8280;BME280;8335;42.646;23.380;2023-04-15T03:58:13;143087.72;;;6.02;98.10
8280;BME280;8335;42.646;23.380;2023-04-15T04:00:42;143069.16;;;5.94;98.62
8280;BME280;8335;42.646;23.380;2023-04-15T04:03:08;143098.84;;;6.06;99.61
8280;BME280;8335;42.646;23.380;2023-04-15T04:05:36;143121.16;;;6.16;99.42
8280;BME280;8335;42.646;23.380;2023-04-15T04:08:03;143139.75;;;6.23;98.63
8280;BME280;8335;42.646;23.380;2023-04-15T04:10:30;143186.78;;;6.43;98.70
8280;BME280;8335;42.646;23.380;2023-04-15T04:12:57;143247.53;;;6.68;98.52
8280;BME280;8335;42.646;23.380;2023-04-15T04:15:24;143362.78;;;7.15;96.27
8280;BME280;8335;42.646;23.380;2023-04-15T04:17:52;143517.78;;;7.79;93.91
8280;BME280;8335;42.646;23.380;2023-04-15T04:20:19;143772.16;;;8.83;89.04
8280;BME280;8335;42.646;23.380;2023-04-15T04:22:46;144078.97;;;10.09;83.49
8280;BME280;8335;42.646;23.380;2023-04-15T04:25:13;144351.22;;;11.20;77.73
8280;BME280;8335;42.646;23.380;2023-04-15T04:27:39;144676.09;;;12.53;71.05
8280;BME280;8335;42.646;23.380;2023-04-15T04:30:07;144932.75;;;13.58;65.72
8280;BME280;8335;42.646;23.380;2023-04-15T04:32:34;145153.41;;;14.48;61.86
8280;BME280;8335;42.646;23.380;2023-04-15T04:35:02;145321.78;;;15.17;58.25
8280;BME280;8335;42.646;23.380;2023-04-15T04:37:29;145507.75;;;15.93;55.37
8280;BME280;8335;42.646;23.380;2023-04-15T04:39:56;145690.09;;;16.67;52.89
8280;BME280;8335;42.646;23.380;2023-04-15T04:42:23;145901.31;;;17.53;50.49
8280;BME280;8335;42.646;23.380;2023-04-15T04:44:49;146095.13;;;18.32;47.41
8280;BME280;8335;42.646;23.380;2023-04-15T04:47:16;146314.09;;;19.21;45.19
8280;BME280;8335;42.646;23.380;2023-04-15T04:49:43;146504.41;;;19.99;42.64
8280;BME280;8335;42.646;23.380;2023-04-15T04:52:11;146742.44;;;20.96;40.55
8280;BME280;8335;42.646;23.380;2023-04-15T04:54:38;146959.31;;;21.84;38.57
8280;BME280;8335;42.646;23.380;2023-04-15T04:57:05;147157.50;;;22.64;36.89
8280;BME280;8335;42.646;23.380;2023-04-15T04:59:33;147338.25;;;23.38;34.96
8280;BME280;8335;42.646;23.380;2023-04-15T05:01:59;147532.91;;;24.16;33.82
8280;BME280;8335;42.646;23.380;2023-04-15T05:04:26;147699.97;;;24.84;32.14
8280;BME280;8335;42.646;23.380;2023-04-15T05:06:53;147826.91;;;25.36;30.95
8280;BME280;8335;42.646;23.380;2023-04-15T05:09:21;147970.28;;;25.94;30.59
8280;BME280;8335;42.646;23.380;2023-04-15T05:11:48;148122.47;;;26.55;29.07
8280;BME280;8335;42.646;23.380;2023-04-15T05:14:14;148244.53;;;27.05;28.22
8280;BME280;8335;42.646;23.380;2023-04-15T05:16:41;148389.25;;;27.63;27.36
8280;BME280;8335;42.646;23.380;2023-04-15T05:19:08;148535.34;;;28.22;26.71
8280;BME280;8335;42.646;23.380;2023-04-15T05:21:35;148661.31;;;28.73;25.62
8280;BME280;8335;42.646;23.380;2023-04-15T05:24:03;148782.28;;;29.22;24.52
8280;BME280;8335;42.646;23.380;2023-04-15T05:26:31;148899.50;;;29.70;24.23
8280;BME280;8335;42.646;23.380;2023-04-15T05:28:58;149015.53;;;30.17;23.48
8280;BME280;8335;42.646;23.380;2023-04-15T05:31:25;149033.16;;;30.24;22.58
8280;BME280;8335;42.646;23.380;2023-04-15T05:33:51;149136.56;;;30.65;22.25
8280;BME280;8335;42.646;23.380;2023-04-15T05:36:18;149208.50;;;30.94;22.15
8280;BME280;8335;42.646;23.380;2023-04-15T05:38:45;149246.31;;;31.10;22.14
8280;BME280;8335;42.646;23.380;2023-04-15T05:41:12;149335.94;;;31.46;22.03
8280;BME280;8335;42.646;23.380;2023-04-15T05:43:41;149395.22;;;31.70;21.30
8280;BME280;8335;42.646;23.380;2023-04-15T05:46:08;149426.81;;;31.83;20.70
8280;BME280;8335;42.646;23.380;2023-04-15T05:48:34;149450.75;;;31.92;21.11
8280;BME280;8335;42.646;23.380;2023-04-15T05:51:01;149153.00;;;30.72;21.80
8280;BME280;8335;42.646;23.380;2023-04-15T05:53:28;148996.63;;;30.09;22.21
8280;BME280;8335;42.646;23.380;2023-04-15T05:55:55;148928.50;;;29.81;22.54
8280;BME280;8335;42.646;23.380;2023-04-15T05:58:22;148671.38;;;28.77;23.75
8280;BME280;8335;42.646;23.380;2023-04-15T06:00:50;148614.69;;;28.55;23.76
8280;BME280;8335;42.646;23.380;2023-04-15T06:03:17;148291.09;;;27.24;24.19
8280;BME280;8335;42.646;23.380;2023-04-15T06:05:43;148236.97;;;27.02;24.28
8280;BME280;8335;42.646;23.380;2023-04-15T06:08:10;148263.41;;;27.12;24.66
8280;BME280;8335;42.646;23.380;2023-04-15T06:10:37;148170.28;;;26.75;24.82
8280;BME280;8335;42.646;23.380;2023-04-15T06:13:04;148102.34;;;26.47;25.25
8280;BME280;8335;42.646;23.380;2023-04-15T06:15:31;148070.84;;;26.34;26.18
8280;BME280;8335;42.646;23.380;2023-04-15T06:17:59;148160.19;;;26.71;26.03
8280;BME280;8335;42.646;23.380;2023-04-15T06:20:26;148268.44;;;27.14;25.96
8280;BME280;8335;42.646;23.380;2023-04-15T06:22:53;148313.75;;;27.33;25.61
8280;BME280;8335;42.646;23.380;2023-04-15T06:25:19;148382.97;;;27.61;25.37
8280;BME280;8335;42.646;23.380;2023-04-15T06:27:46;148336.38;;;27.42;25.41
8280;BME280;8335;42.646;23.380;2023-04-15T06:30:13;148399.38;;;27.67;25.39
8280;BME280;8335;42.646;23.380;2023-04-15T06:32:40;148299.91;;;27.27;25.29
8280;BME280;8335;42.646;23.380;2023-04-15T06:35:08;148082.25;;;26.39;26.14
8280;BME280;8335;42.646;23.380;2023-04-15T06:37:36;147909.88;;;25.69;26.78
8280;BME280;8335;42.646;23.380;2023-04-15T06:40:03;147793.03;;;25.22;27.20
8280;BME280;8335;42.646;23.380;2023-04-15T06:42:30;147782.97;;;25.18;27.43
8280;BME280;8335;42.646;23.380;2023-04-15T06:44:57;147755.28;;;25.07;27.28
8280;BME280;8335;42.646;23.380;2023-04-15T06:47:23;147692.44;;;24.81;27.41
8280;BME280;8335;42.646;23.380;2023-04-15T06:49:50;147789.22;;;25.20;27.65
8280;BME280;8335;42.646;23.380;2023-04-15T06:52:18;147894.78;;;25.63;27.28
8280;BME280;8335;42.646;23.380;2023-04-15T06:54:45;148067.09;;;26.33;26.61
8280;BME280;8335;42.646;23.380;2023-04-15T06:57:12;148239.47;;;27.03;25.92
8280;BME280;8335;42.646;23.380;2023-04-15T06:59:39;148273.50;;;27.17;25.93
8280;BME280;8335;42.646;23.380;2023-04-15T07:02:11;148155.19;;;26.69;26.00
8280;BME280;8335;42.646;23.380;2023-04-15T07:04:38;148229.38;;;26.99;25.97
8280;BME280;8335;42.646;23.380;2023-04-15T07:07:05;148153.91;;;26.68;25.52
8280;BME280;8335;42.646;23.380;2023-04-15T07:09:33;148123.72;;;26.56;25.41
8280;BME280;8335;42.646;23.380;2023-04-15T07:12:01;148059.56;;;26.30;26.49
8280;BME280;8335;42.646;23.380;2023-04-15T07:14:28;148057.00;;;26.29;26.27
8280;BME280;8335;42.646;23.380;2023-04-15T07:16:55;148151.41;;;26.67;26.04
8280;BME280;8335;42.646;23.380;2023-04-15T07:19:22;148181.63;;;26.79;25.46
8280;BME280;8335;42.646;23.380;2023-04-15T07:21:49;148161.44;;;26.71;25.31
8280;BME280;8335;42.646;23.380;2023-04-15T07:24:15;148241.97;;;27.04;26.05
8280;BME280;8335;42.646;23.380;2023-04-15T07:26:44;148192.91;;;26.84;25.99
8280;BME280;8335;42.646;23.380;2023-04-15T07:29:10;148243.28;;;27.04;25.92
8280;BME280;8335;42.646;23.380;2023-04-15T07:31:39;148271.00;;;27.15;25.40
8280;BME280;8335;42.646;23.380;2023-04-15T07:34:06;148176.56;;;26.77;26.01
8280;BME280;8335;42.646;23.380;2023-04-15T07:36:32;148296.13;;;27.26;25.29
8280;BME280;8335;42.646;23.380;2023-04-15T07:38:59;148230.63;;;26.99;25.52
8280;BME280;8335;42.646;23.380;2023-04-15T07:41:28;148104.88;;;26.48;26.51
8280;BME280;8335;42.646;23.380;2023-04-15T07:43:56;147943.88;;;25.83;26.67
8280;BME280;8335;42.646;23.380;2023-04-15T07:46:23;147848.31;;;25.44;27.12
8280;BME280;8335;42.646;23.380;2023-04-15T07:48:51;147736.41;;;24.99;27.82
8280;BME280;8335;42.646;23.380;2023-04-15T07:51:18;147598.22;;;24.43;28.46
8280;BME280;8335;42.646;23.380;2023-04-15T07:53:45;147545.41;;;24.22;28.75
8280;BME280;8335;42.646;23.380;2023-04-15T07:56:12;147652.25;;;24.65;28.75
8280;BME280;8335;42.646;23.380;2023-04-15T07:58:39;147723.88;;;24.94;28.82
8280;BME280;8335;42.646;23.380;2023-04-15T08:01:08;147864.66;;;25.51;28.72
8280;BME280;8335;42.646;23.380;2023-04-15T08:03:35;147842.00;;;25.42;28.39
8280;BME280;8335;42.646;23.380;2023-04-15T08:06:02;147791.72;;;25.21;28.02
8280;BME280;8335;42.646;23.380;2023-04-15T08:08:28;147921.25;;;25.74;27.92
8280;BME280;8335;42.646;23.380;2023-04-15T08:10:55;148052.00;;;26.27;26.58
8280;BME280;8335;42.646;23.380;2023-04-15T08:13:22;148033.13;;;26.19;26.81
8280;BME280;8335;42.646;23.380;2023-04-15T08:16:14;148026.88;;;26.17;27.19
8280;BME280;8335;42.646;23.380;2023-04-15T08:18:42;147985.34;;;26.00;27.35
8280;BME280;8335;42.646;23.380;2023-04-15T08:21:09;147927.53;;;25.76;26.90
8280;BME280;8335;42.646;23.380;2023-04-15T08:23:37;147975.31;;;25.96;27.19
8280;BME280;8335;42.646;23.380;2023-04-15T08:26:04;147857.09;;;25.48;25.68
8280;BME280;8335;42.646;23.380;2023-04-15T08:28:30;147830.72;;;25.37;26.76
8280;BME280;8335;42.646;23.380;2023-04-15T08:30:57;147794.28;;;25.22;27.07
8280;BME280;8335;42.646;23.380;2023-04-15T08:33:25;147696.22;;;24.83;27.00
8280;BME280;8335;42.646;23.380;2023-04-15T08:35:53;147691.19;;;24.81;27.20
8280;BME280;8335;42.646;23.380;2023-04-15T08:38:20;147691.19;;;24.81;27.08
8280;BME280;8335;42.646;23.380;2023-04-15T08:40:47;147721.31;;;24.93;27.70
8280;BME280;8335;42.646;23.380;2023-04-15T08:43:18;147686.13;;;24.79;27.02
8280;BME280;8335;42.646;23.380;2023-04-15T08:45:47;147801.81;;;25.25;27.06
8280;BME280;8335;42.646;23.380;2023-04-15T08:48:16;147686.13;;;24.79;27.15
8280;BME280;8335;42.646;23.380;2023-04-15T08:50:45;147671.09;;;24.73;27.23
8280;BME280;8335;42.646;23.380;2023-04-15T08:53:12;147615.78;;;24.50;27.60
8280;BME280;8335;42.646;23.380;2023-04-15T08:55:42;147614.53;;;24.50;28.05
8280;BME280;8335;42.646;23.380;2023-04-15T08:58:10;147624.59;;;24.54;28.04
8280;BME280;8335;42.646;23.380;2023-04-15T09:00:38;147509.00;;;24.07;28.62
8280;BME280;8335;42.646;23.380;2023-04-15T09:03:06;147481.41;;;23.96;28.65
8280;BME280;8335;42.646;23.380;2023-04-15T09:05:34;147522.81;;;24.12;27.50
8280;BME280;8335;42.646;23.380;2023-04-15T09:08:02;147578.13;;;24.35;26.21
8280;BME280;8335;42.646;23.380;2023-04-15T09:10:31;147493.97;;;24.01;26.47
8280;BME280;8335;42.646;23.380;2023-04-15T09:12:58;147532.91;;;24.16;25.53
8280;BME280;8335;42.646;23.380;2023-04-15T09:15:25;147481.41;;;23.96;24.87
8280;BME280;8335;42.646;23.380;2023-04-15T09:17:54;147480.16;;;23.95;25.25
8280;BME280;8335;42.646;23.380;2023-04-15T09:20:20;147483.91;;;23.97;25.15
8280;BME280;8335;42.646;23.380;2023-04-15T09:22:48;147560.50;;;24.28;24.86
8280;BME280;8335;42.646;23.380;2023-04-15T09:25:29;147345.78;;;23.41;25.34
8280;BME280;8335;42.646;23.380;2023-04-15T09:28:00;147470.09;;;23.91;24.55
8280;BME280;8335;42.646;23.380;2023-04-15T09:30:27;147515.31;;;24.09;24.09
8280;BME280;8335;42.646;23.380;2023-04-15T09:32:55;147315.63;;;23.28;25.63
8280;BME280;8335;42.646;23.380;2023-04-15T09:35:24;147206.44;;;22.84;25.63
8280;BME280;8335;42.646;23.380;2023-04-15T09:37:52;147251.66;;;23.02;25.26
8280;BME280;8335;42.646;23.380;2023-04-15T09:40:36;147299.38;;;23.22;25.27
8280;BME280;8335;42.646;23.380;2023-04-15T09:43:03;147325.69;;;23.32;25.65
8280;BME280;8335;42.646;23.380;2023-04-15T09:45:31;147245.38;;;23.00;25.71
8280;BME280;8335;42.646;23.380;2023-04-15T09:47:59;147165.03;;;22.67;25.85
8280;BME280;8335;42.646;23.380;2023-04-15T09:50:41;147147.47;;;22.60;26.08
8280;BME280;8335;42.646;23.380;2023-04-15T09:53:08;147155.00;;;22.63;26.27
8280;BME280;8335;42.646;23.380;2023-04-15T09:55:37;147190.13;;;22.77;26.82
8280;BME280;8335;42.646;23.380;2023-04-15T09:58:07;147239.09;;;22.97;27.05
8280;BME280;8335;42.646;23.380;2023-04-15T10:00:35;147249.16;;;23.01;26.50
8280;BME280;8335;42.646;23.380;2023-04-15T10:03:04;147239.09;;;22.97;26.13
8280;BME280;8335;42.646;23.380;2023-04-15T10:05:32;147147.47;;;22.60;27.83
8280;BME280;8335;42.646;23.380;2023-04-15T10:07:59;147025.81;;;22.11;27.30
8280;BME280;8335;42.646;23.380;2023-04-15T10:10:28;146826.47;;;21.30;28.57
8280;BME280;8335;42.646;23.380;2023-04-15T10:12:59;146704.88;;;20.80;29.16
8280;BME280;8335;42.646;23.380;2023-04-15T10:15:27;146597.09;;;20.37;29.46
8280;BME280;8335;42.646;23.380;2023-04-15T10:17:55;146588.31;;;20.33;28.74
8280;BME280;8335;42.646;23.380;2023-04-15T10:20:23;146679.78;;;20.70;28.44
8280;BME280;8335;42.646;23.380;2023-04-15T10:22:51;146783.78;;;21.12;28.34
8280;BME280;8335;42.646;23.380;2023-04-15T10:25:18;146841.47;;;21.36;28.17
8280;BME280;8335;42.646;23.380;2023-04-15T10:27:46;147054.69;;;22.22;26.79
8280;BME280;8335;42.646;23.380;2023-04-15T10:30:15;147259.16;;;23.05;27.29
8280;BME280;8335;42.646;23.380;2023-04-15T10:32:43;147358.34;;;23.46;26.00
8280;BME280;8335;42.646;23.380;2023-04-15T10:35:12;147390.97;;;23.59;26.40
8280;BME280;8335;42.646;23.380;2023-04-15T10:37:39;147409.84;;;23.67;25.20
8280;BME280;8335;42.646;23.380;2023-04-15T10:40:23;147274.25;;;23.12;24.74
8280;BME280;8335;42.646;23.380;2023-04-15T10:42:52;147202.69;;;22.83;26.34
8280;BME280;8335;42.646;23.380;2023-04-15T10:45:20;147032.06;;;22.13;26.92
8280;BME280;8335;42.646;23.380;2023-04-15T10:47:51;146874.06;;;21.49;28.30
8280;BME280;8335;42.646;23.380;2023-04-15T10:50:18;146845.25;;;21.37;28.61
8280;BME280;8335;42.646;23.380;2023-04-15T10:52:45;146747.44;;;20.98;29.32
8280;BME280;8335;42.646;23.380;2023-04-15T10:55:18;146747.44;;;20.98;29.29
8280;BME280;8335;42.646;23.380;2023-04-15T10:57:46;146837.72;;;21.34;27.85
8280;BME280;8335;42.646;23.380;2023-04-15T11:00:18;146901.66;;;21.60;27.60
8280;BME280;8335;42.646;23.380;2023-04-15T11:02:51;146944.25;;;21.78;27.61
8280;BME280;8335;42.646;23.380;2023-04-15T11:05:19;146964.31;;;21.86;26.93
8280;BME280;8335;42.646;23.380;2023-04-15T11:07:49;147014.47;;;22.06;27.49
8280;BME280;8335;42.646;23.380;2023-04-15T11:10:50;147014.47;;;22.06;27.34
8280;BME280;8335;42.646;23.380;2023-04-15T11:13:24;146892.88;;;21.57;27.47
8280;BME280;8335;42.646;23.380;2023-04-15T11:15:56;146827.72;;;21.30;27.90
8280;BME280;8335;42.646;23.380;2023-04-15T11:18:27;146716.13;;;20.85;28.79
8280;BME280;8335;42.646;23.380;2023-04-15T11:20:56;146738.69;;;20.94;28.65
8280;BME280;8335;42.646;23.380;2023-04-15T11:23:28;146691.09;;;20.75;28.86
8280;BME280;8335;42.646;23.380;2023-04-15T11:25:56;146694.81;;;20.76;29.10
8280;BME280;8335;42.646;23.380;2023-04-15T11:28:25;146724.91;;;20.88;28.29
8280;BME280;8335;42.646;23.380;2023-04-15T11:30:53;146707.38;;;20.81;28.38
8280;BME280;8335;42.646;23.380;2023-04-15T11:33:21;146697.31;;;20.77;28.22
8280;BME280;8335;42.646;23.380;2023-04-15T11:35:49;146734.91;;;20.93;27.97
8280;BME280;8335;42.646;23.380;2023-04-15T11:38:18;146746.19;;;20.97;27.49
8280;BME280;8335;42.646;23.380;2023-04-15T11:40:45;146645.97;;;20.56;27.91
8280;BME280;8335;42.646;23.380;2023-04-15T11:43:13;146653.50;;;20.59;29.05
8280;BME280;8335;42.646;23.380;2023-04-15T11:45:48;146642.22;;;20.55;29.47
8280;BME280;8335;42.646;23.380;2023-04-15T11:48:17;146590.81;;;20.34;29.41
8280;BME280;8335;42.646;23.380;2023-04-15T11:50:44;146526.97;;;20.08;29.13
8280;BME280;8335;42.646;23.380;2023-04-15T11:53:13;146438.09;;;19.72;29.47
8280;BME280;8335;42.646;23.380;2023-04-15T11:55:41;146316.63;;;19.22;29.97
8280;BME280;8335;42.646;23.380;2023-04-15T11:58:10;146349.13;;;19.36;29.91
8280;BME280;8335;42.646;23.380;2023-04-15T12:00:38;146431.78;;;19.69;29.42
8280;BME280;8335;42.646;23.380;2023-04-15T12:03:12;146506.91;;;20.00;29.76
8280;BME280;8335;42.646;23.380;2023-04-15T12:06:13;146499.41;;;19.97;29.36
8280;BME280;8335;42.646;23.380;2023-04-15T12:09:02;146509.44;;;20.01;29.56
8280;BME280;8335;42.646;23.380;2023-04-15T12:11:42;146545.75;;;20.16;28.78
8280;BME280;8335;42.646;23.380;2023-04-15T12:14:21;146554.50;;;20.19;28.27
8280;BME280;8335;42.646;23.380;2023-04-15T12:16:50;146630.97;;;20.50;28.34
8280;BME280;8335;42.646;23.380;2023-04-15T12:19:22;146623.44;;;20.47;28.52
8280;BME280;8335;42.646;23.380;2023-04-15T12:21:51;146590.81;;;20.34;28.95
8280;BME280;8335;42.646;23.380;2023-04-15T12:24:21;146595.84;;;20.36;28.08
8280;BME280;8335;42.646;23.380;2023-04-15T12:26:49;146598.34;;;20.37;28.19
8280;BME280;8335;42.646;23.380;2023-04-15T12:29:16;146663.50;;;20.64;28.56
8280;BME280;8335;42.646;23.380;2023-04-15T12:31:47;146644.72;;;20.56;28.91
8280;BME280;8335;42.646;23.380;2023-04-15T12:34:15;146748.69;;;20.98;27.34
8280;BME280;8335;42.646;23.380;2023-04-15T12:36:42;146786.28;;;21.13;27.16
8280;BME280;8335;42.646;23.380;2023-04-15T12:39:09;146827.72;;;21.30;25.47
8280;BME280;8335;42.646;23.380;2023-04-15T12:41:37;146775.03;;;21.09;25.30
8280;BME280;8335;42.646;23.380;2023-04-15T12:44:04;146738.69;;;20.94;25.24
8280;BME280;8335;42.646;23.380;2023-04-15T12:46:30;146746.19;;;20.97;26.00
8280;BME280;8335;42.646;23.380;2023-04-15T12:48:57;146818.88;;;21.27;25.98
8280;BME280;8335;42.646;23.380;2023-04-15T12:51:24;146816.38;;;21.26;25.37
8280;BME280;8335;42.646;23.380;2023-04-15T12:53:51;146831.47;;;21.32;24.70
8280;BME280;8335;42.646;23.380;2023-04-15T12:56:18;146844.00;;;21.37;24.84
8280;BME280;8335;42.646;23.380;2023-04-15T12:58:46;146831.47;;;21.32;24.39
8280;BME280;8335;42.646;23.380;2023-04-15T13:01:13;146802.56;;;21.20;25.15
8280;BME280;8335;42.646;23.380;2023-04-15T13:03:40;146760.00;;;21.03;25.80
8280;BME280;8335;42.646;23.380;2023-04-15T13:06:06;146752.44;;;21.00;26.69
8280;BME280;8335;42.646;23.380;2023-04-15T13:08:33;146851.50;;;21.40;26.60
8280;BME280;8335;42.646;23.380;2023-04-15T13:11:00;146882.84;;;21.53;27.62